Time;durP1;ratioP1;P1;durP2;ratioP2;P2;SDS_P1;SDS_P2;PMS_P1;PMS_P2;Temp;Humidity;BMP_temperature;BMP_pressure;BME280_temperature;BME280_humidity;BME280_pressure;Samples;Min_cycle;Max_cycle;Signal;HPM_P1;HPM_P2
2021/08/20 00:01:56;;;;;;;16.40;13.38;;;15.50;99.90;;;;;;4944288;28;37680;-79
2021/08/20 00:04:23;;;;;;;20.23;14.52;;;15.60;99.90;;;;;;4943972;28;37339;-79
2021/08/20 00:06:49;;;;;;;18.00;14.07;;;15.50;99.90;;;;;;4944073;28;36867;-80
2021/08/20 00:09:17;;;;;;;18.17;13.98;;;15.60;99.90;;;;;;4946550;28;36339;-79
2021/08/20 00:11:43;;;;;;;19.65;14.98;;;15.60;99.90;;;;;;4957382;28;38171;-80
2021/08/20 00:14:15;;;;;;;17.83;14.07;;;15.60;99.90;;;;;;4941582;28;38190;-79
2021/08/20 00:16:42;;;;;;;16.60;14.55;;;15.60;99.90;;;;;;4943791;28;37039;-79
2021/08/20 00:19:08;;;;;;;19.75;14.35;;;15.60;99.90;;;;;;4945804;28;36006;-78
2021/08/20 00:21:35;;;;;;;20.73;15.63;;;15.60;99.90;;;;;;4943854;28;37966;-79
2021/08/20 00:24:01;;;;;;;18.83;15.98;;;15.50;99.90;;;;;;4943542;28;37394;-79
2021/08/20 00:26:27;;;;;;;22.52;15.02;;;15.50;99.90;;;;;;4939964;28;47031;-78
2021/08/20 00:28:53;;;;;;;20.35;15.77;;;15.50;99.90;;;;;;4939377;28;35544;-79
2021/08/20 00:31:21;;;;;;;24.13;17.55;;;15.50;99.90;;;;;;4958591;28;38724;-78
2021/08/20 00:33:47;;;;;;;23.45;16.58;;;15.50;99.90;;;;;;4963638;28;37817;-79
2021/08/20 00:36:14;;;;;;;20.33;15.50;;;15.50;99.90;;;;;;4947578;28;37293;-79
2021/08/20 00:38:40;;;;;;;16.67;13.55;;;15.50;99.90;;;;;;4944926;28;36887;-80
2021/08/20 00:41:12;;;;;;;26.45;17.63;;;15.50;99.90;;;;;;4944869;28;38896;-79
2021/08/20 00:43:42;;;;;;;17.05;15.05;;;15.50;99.90;;;;;;4960879;28;39021;-78
2021/08/20 00:46:08;;;;;;;22.42;17.70;;;15.50;99.90;;;;;;4941146;28;36692;-78
2021/08/20 00:48:35;;;;;;;21.23;16.02;;;15.50;99.90;;;;;;4940464;28;36041;-79
2021/08/20 00:51:07;;;;;;;20.52;17.10;;;15.60;99.90;;;;;;4942482;28;39500;-79
2021/08/20 00:53:35;;;;;;;20.98;16.25;;;15.60;99.90;;;;;;4972115;28;38647;-79
2021/08/20 00:56:04;;;;;;;22.30;15.98;;;15.60;99.90;;;;;;4945720;28;36407;-79
2021/08/20 00:58:32;;;;;;;21.35;16.52;;;15.60;99.90;;;;;;4941401;28;47134;-79
2021/08/20 01:00:58;;;;;;;18.63;16.08;;;15.70;99.90;;;;;;4940414;28;37992;-78
2021/08/20 01:03:36;;;;;;;21.70;16.25;;;15.70;99.90;;;;;;4956806;28;38678;-78
2021/08/20 01:06:08;;;;;;;23.35;17.30;;;15.70;99.90;;;;;;4942618;28;36384;-78
2021/08/20 01:08:36;;;;;;;21.67;16.25;;;15.80;99.90;;;;;;4941860;28;35237;-79
2021/08/20 01:11:05;;;;;;;23.08;17.33;;;15.80;99.90;;;;;;4968153;28;38499;-78
2021/08/20 01:13:36;;;;;;;19.95;16.33;;;15.80;99.90;;;;;;4944469;28;37299;-79
2021/08/20 01:16:03;;;;;;;21.27;17.73;;;15.90;99.90;;;;;;4949401;28;36931;-78
2021/08/20 01:18:30;;;;;;;20.88;17.50;;;15.90;99.90;;;;;;4967395;28;37517;-79
2021/08/20 01:20:59;;;;;;;20.55;17.27;;;15.90;99.90;;;;;;4944211;28;38661;-78
2021/08/20 01:23:27;;;;;;;24.92;18.67;;;15.90;99.90;;;;;;4960493;28;38555;-78
2021/08/20 01:25:53;;;;;;;28.95;20.33;;;15.90;99.90;;;;;;4949810;28;36799;-79
2021/08/20 01:28:21;;;;;;;29.13;21.63;;;16.00;99.90;;;;;;4972004;28;38194;-79
2021/08/20 01:30:48;;;;;;;28.15;19.33;;;15.90;99.90;;;;;;4943936;28;35420;-79
2021/08/20 01:33:14;;;;;;;23.13;18.75;;;16.00;99.90;;;;;;4947960;28;38185;-79
2021/08/20 01:35:41;;;;;;;29.08;20.58;;;16.00;99.90;;;;;;4960148;28;37715;-78
2021/08/20 01:38:09;;;;;;;24.88;18.58;;;16.00;99.90;;;;;;4946967;28;36046;-78
2021/08/20 01:40:35;;;;;;;30.63;21.17;;;16.00;99.90;;;;;;4945223;28;38055;-78
2021/08/20 01:43:01;;;;;;;32.63;21.88;;;16.00;99.90;;;;;;4957922;28;37279;-78
2021/08/20 01:45:33;;;;;;;34.00;22.80;;;16.10;99.90;;;;;;4958082;28;40289;-78
2021/08/20 01:47:59;;;;;;;25.83;20.17;;;16.10;99.90;;;;;;4957170;28;36168;-78
2021/08/20 01:50:25;;;;;;;27.17;20.63;;;16.10;99.90;;;;;;4945753;28;38724;-79
2021/08/20 01:52:51;;;;;;;41.40;23.80;;;16.20;99.90;;;;;;4963068;28;38509;-79
2021/08/20 01:55:17;;;;;;;33.17;22.40;;;16.20;99.90;;;;;;4957321;28;38132;-80
2021/08/20 01:57:45;;;;;;;34.63;22.05;;;16.30;99.90;;;;;;4943350;28;37270;-79
2021/08/20 02:00:12;;;;;;;32.03;22.45;;;16.30;99.90;;;;;;4957710;28;39054;-79
2021/08/20 02:02:38;;;;;;;31.52;20.58;;;16.30;99.90;;;;;;4957811;28;38114;-79
2021/08/20 02:05:05;;;;;;;34.97;23.38;;;16.40;99.90;;;;;;4959864;28;38143;-80
2021/08/20 02:07:35;;;;;;;27.77;20.35;;;16.40;99.90;;;;;;4949331;28;38579;-79
2021/08/20 02:10:07;;;;;;;29.08;20.67;;;16.40;99.90;;;;;;4963309;28;40613;-79
2021/08/20 02:12:34;;;;;;;;;;;16.40;99.90;;;;;;4961451;28;47289;-80
2021/08/20 02:15:00;;;;;;;37.53;22.23;;;16.50;99.90;;;;;;4944204;28;38672;-79
2021/08/20 02:17:26;;;;;;;40.63;23.98;;;16.50;99.90;;;;;;4957799;28;37156;-79
2021/08/20 02:19:53;;;;;;;27.92;21.27;;;16.50;99.90;;;;;;4962139;28;39289;-79
2021/08/20 02:22:43;;;;;;;33.00;22.33;;;16.60;99.90;;;;;;4963690;28;38209;-80
2021/08/20 02:25:11;;;;;;;29.85;21.80;;;16.60;99.90;;;;;;4936303;28;36765;-80
2021/08/20 02:27:38;;;;;;;31.42;23.05;;;16.70;99.90;;;;;;4962402;28;36941;-80
2021/08/20 02:30:05;;;;;;;30.98;22.45;;;16.70;99.90;;;;;;4958403;28;37643;-79
2021/08/20 02:32:32;;;;;;;32.63;22.75;;;16.60;99.90;;;;;;4947930;28;37339;-80
2021/08/20 02:35:00;;;;;;;34.67;22.50;;;16.60;99.90;;;;;;4958272;28;35849;-79
2021/08/20 02:37:27;;;;;;;35.63;22.58;;;16.70;99.90;;;;;;4957518;28;38669;-80
2021/08/20 02:40:00;;;;;;;27.38;20.98;;;16.70;99.90;;;;;;4943907;28;38597;-80
2021/08/20 02:42:26;;;;;;;30.20;22.20;;;16.70;99.90;;;;;;4948555;28;38383;-80
2021/08/20 02:44:52;;;;;;;44.58;26.52;;;16.70;99.90;;;;;;4940140;28;37138;-79
2021/08/20 02:47:18;;;;;;;30.55;21.05;;;16.70;99.90;;;;;;4944156;28;36471;-80
2021/08/20 02:49:47;;;;;;;32.22;22.38;;;16.70;99.90;;;;;;4950849;28;37572;-79
2021/08/20 02:52:13;;;;;;;41.40;24.48;;;16.70;99.90;;;;;;4945878;28;37492;-79
2021/08/20 02:54:40;;;;;;;42.60;24.92;;;16.60;99.90;;;;;;4947998;28;38130;-78
2021/08/20 02:57:17;;;;;;;28.15;20.65;;;16.60;99.90;;;;;;4946662;28;36868;-79
2021/08/20 02:59:43;;;;;;;31.50;20.85;;;16.70;99.90;;;;;;4943719;28;38418;-80
2021/08/20 03:02:10;;;;;;;27.55;20.45;;;16.70;99.90;;;;;;4949359;28;38974;-79
2021/08/20 03:04:36;;;;;;;32.47;21.60;;;16.70;99.90;;;;;;4948949;28;37968;-80
2021/08/20 03:07:20;;;;;;;27.88;18.88;;;16.80;99.90;;;;;;4967698;28;36173;-79
2021/08/20 03:09:46;;;;;;;25.83;17.98;;;16.80;99.90;;;;;;4957539;28;37479;-79
2021/08/20 03:12:14;;;;;;;26.98;18.45;;;16.90;99.90;;;;;;4953808;28;38344;-79
2021/08/20 03:14:45;;;;;;;35.65;20.77;;;16.90;99.90;;;;;;4972408;28;37735;-80
2021/08/20 03:17:13;;;;;;;33.25;20.00;;;16.90;99.90;;;;;;4950545;28;38769;-80
2021/08/20 03:19:39;;;;;;;35.33;20.13;;;17.00;99.90;;;;;;4985738;28;38673;-80
2021/08/20 03:22:05;;;;;;;31.45;18.77;;;17.00;99.90;;;;;;4956129;28;37486;-79
2021/08/20 03:24:33;;;;;;;28.02;16.92;;;17.00;99.90;;;;;;4969033;28;38303;-80
2021/08/20 03:27:00;;;;;;;27.08;17.33;;;17.00;99.90;;;;;;4956908;28;34192;-79
2021/08/20 03:29:27;;;;;;;31.27;18.23;;;17.00;99.90;;;;;;4949265;28;47015;-80
2021/08/20 03:31:59;;;;;;;23.55;16.27;;;17.00;99.90;;;;;;4971382;28;39325;-80
2021/08/20 03:34:32;;;;;;;30.67;18.70;;;17.00;99.90;;;;;;4951151;28;37659;-79
2021/08/20 03:37:22;;;;;;;26.85;16.73;;;17.10;99.90;;;;;;4953313;28;37300;-79
2021/08/20 03:39:51;;;;;;;27.15;16.10;;;17.10;99.90;;;;;;4949346;28;48268;-79
2021/08/20 03:42:27;;;;;;;25.42;15.57;;;17.10;99.90;;;;;;4977368;28;38189;-78
2021/08/20 03:44:53;;;;;;;22.40;15.32;;;17.10;99.90;;;;;;4968041;28;38623;-79
2021/08/20 03:47:27;;;;;;;25.13;15.23;;;17.10;99.90;;;;;;4950182;28;37081;-79
2021/08/20 03:49:53;;;;;;;21.00;12.32;;;17.10;99.90;;;;;;4951380;28;37429;-79
2021/08/20 03:52:23;;;;;;;29.25;16.70;;;17.10;99.90;;;;;;4963276;28;40070;-78
2021/08/20 03:54:50;;;;;;;25.67;15.80;;;17.10;99.90;;;;;;4963622;28;38561;-79
2021/08/20 03:57:25;;;;;;;27.88;16.50;;;17.00;99.90;;;;;;4961004;28;38053;-79
2021/08/20 03:59:51;;;;;;;27.25;17.33;;;17.00;99.90;;;;;;4962973;28;39278;-80
2021/08/20 04:02:17;;;;;;;23.20;15.25;;;17.00;99.90;;;;;;4946823;28;38468;-79
2021/08/20 04:04:43;;;;;;;24.60;16.48;;;17.00;99.90;;;;;;4964106;28;38495;-79
2021/08/20 04:07:10;;;;;;;25.95;17.23;;;16.90;99.90;;;;;;4946447;28;37765;-79
2021/08/20 04:09:36;;;;;;;25.77;18.27;;;16.90;99.90;;;;;;4950926;28;38523;-79
2021/08/20 04:12:09;;;;;;;26.77;16.30;;;16.90;99.90;;;;;;4949064;28;38549;-79
2021/08/20 04:14:36;;;;;;;25.88;16.33;;;16.90;99.90;;;;;;4949841;28;36654;-79
2021/08/20 04:17:03;;;;;;;30.60;17.83;;;16.90;99.90;;;;;;4948175;28;36240;-79
2021/08/20 04:19:29;;;;;;;23.70;15.75;;;16.90;99.90;;;;;;4973311;28;38243;-79
2021/08/20 04:21:55;;;;;;;26.23;17.23;;;16.90;99.90;;;;;;4948069;28;37745;-79
2021/08/20 04:24:22;;;;;;;23.20;15.63;;;16.90;99.90;;;;;;4951436;28;38036;-79
2021/08/20 04:26:48;;;;;;;27.48;15.57;;;16.90;99.90;;;;;;4962154;28;36730;-79
2021/08/20 04:29:17;;;;;;;26.65;16.60;;;17.00;99.90;;;;;;4940256;28;38754;-79
2021/08/20 04:31:43;;;;;;;26.13;16.40;;;16.90;99.90;;;;;;4946711;28;37339;-79
2021/08/20 04:34:09;;;;;;;29.15;16.05;;;16.90;99.90;;;;;;4962492;28;38520;-78
2021/08/20 04:36:36;;;;;;;23.17;14.93;;;16.90;99.90;;;;;;4959859;28;38262;-79
2021/08/20 04:39:11;;;;;;;27.90;17.40;;;16.90;99.90;;;;;;4944771;28;37886;-79
2021/08/20 04:41:38;;;;;;;31.38;17.63;;;17.00;99.90;;;;;;4944930;28;40296;-79
2021/08/20 04:44:05;;;;;;;33.97;17.92;;;17.00;99.90;;;;;;4963267;28;38355;-78
2021/08/20 04:46:39;;;;;;;32.10;18.95;;;17.00;99.90;;;;;;4949685;28;38081;-78
2021/08/20 04:49:06;;;;;;;31.65;17.52;;;17.00;99.90;;;;;;4960137;28;39308;-78
2021/08/20 04:51:34;;;;;;;34.00;19.25;;;16.90;99.90;;;;;;4947701;28;37321;-79
2021/08/20 04:54:05;;;;;;;30.08;18.13;;;16.90;99.90;;;;;;4951409;28;38861;-78
2021/08/20 04:56:32;;;;;;;29.08;17.80;;;16.90;99.90;;;;;;4947608;28;47404;-78
2021/08/20 04:58:58;;;;;;;30.50;19.13;;;16.90;99.90;;;;;;4959839;28;39463;-79
2021/08/20 05:01:24;;;;;;;30.45;18.73;;;16.90;99.90;;;;;;4960964;28;39608;-79
2021/08/20 05:03:50;;;;;;;34.80;19.55;;;16.80;99.90;;;;;;4966187;28;36751;-79
2021/08/20 05:06:21;;;;;;;29.92;18.88;;;16.90;99.90;;;;;;4961567;28;37333;-79
2021/08/20 05:08:47;;;;;;;29.70;18.30;;;16.90;99.90;;;;;;4947776;28;38030;-79
2021/08/20 05:11:19;;;;;;;30.08;17.70;;;17.00;99.90;;;;;;4945911;28;38264;-79
2021/08/20 05:13:46;;;;;;;25.90;16.65;;;16.90;99.90;;;;;;4959296;28;38506;-79
2021/08/20 05:16:12;;;;;;;32.35;18.40;;;17.00;99.90;;;;;;4959867;28;38723;-79
2021/08/20 05:18:39;;;;;;;32.72;18.20;;;17.00;99.90;;;;;;4947757;28;38855;-79
2021/08/20 05:21:05;;;;;;;23.75;15.30;;;17.00;99.90;;;;;;4951568;28;36566;-79
2021/08/20 05:23:34;;;;;;;31.73;18.15;;;17.00;99.90;;;;;;4951050;28;36845;-79
2021/08/20 05:26:00;;;;;;;23.05;15.70;;;17.10;99.90;;;;;;4962263;28;38422;-79
2021/08/20 05:28:26;;;;;;;27.02;16.17;;;17.10;99.90;;;;;;4977737;28;39368;-79
2021/08/20 05:30:53;;;;;;;20.27;14.68;;;17.10;99.90;;;;;;4945688;28;36557;-79
2021/08/20 05:33:21;;;;;;;30.02;16.85;;;17.10;99.90;;;;;;4961857;28;37937;-79
2021/08/20 05:35:48;;;;;;;20.83;14.85;;;17.20;99.90;;;;;;4959975;28;38010;-80
2021/08/20 05:38:16;;;;;;;29.20;17.42;;;17.20;99.90;;;;;;4953377;28;39763;-79
2021/08/20 05:40:46;;;;;;;20.35;14.15;;;17.20;99.90;;;;;;4956399;28;37639;-79
2021/08/20 05:43:12;;;;;;;21.65;15.27;;;17.30;99.90;;;;;;4971690;28;38008;-79
2021/08/20 05:45:38;;;;;;;21.98;15.27;;;17.30;99.90;;;;;;4953031;28;37225;-80
2021/08/20 05:48:09;;;;;;;20.67;14.65;;;17.30;99.90;;;;;;4954526;28;39140;-80
2021/08/20 05:50:35;;;;;;;19.85;15.20;;;17.30;99.90;;;;;;4954528;28;38112;-80
2021/08/20 05:53:09;;;;;;;24.58;17.27;;;17.40;99.90;;;;;;4967601;28;37985;-79
2021/08/20 05:55:36;;;;;;;19.85;14.27;;;17.40;99.90;;;;;;4953685;28;38882;-79
2021/08/20 05:58:05;;;;;;;20.42;15.02;;;17.40;99.90;;;;;;4955454;28;39011;-78
2021/08/20 06:00:33;;;;;;;19.42;14.43;;;17.40;99.90;;;;;;4958699;28;48144;-80
2021/08/20 06:03:11;;;;;;;25.83;17.65;;;17.40;99.90;;;;;;4946975;28;36970;-79
2021/08/20 06:05:40;;;;;;;19.63;15.00;;;17.50;99.90;;;;;;4918659;28;49257;-79
2021/08/20 06:08:06;;;;;;;19.88;15.57;;;17.50;99.90;;;;;;4945911;28;38995;-79
2021/08/20 06:10:32;;;;;;;18.13;14.70;;;17.60;99.90;;;;;;4936831;28;37970;-79
2021/08/20 06:12:58;;;;;;;23.27;16.95;;;17.60;99.90;;;;;;4941183;28;36784;-80
2021/08/20 06:15:24;;;;;;;20.20;15.55;;;17.60;99.90;;;;;;4949472;28;36142;-80
2021/08/20 06:17:51;;;;;;;23.75;16.48;;;17.60;99.90;;;;;;4944382;28;37477;-80
2021/08/20 06:20:17;;;;;;;25.52;17.88;;;17.70;99.90;;;;;;4953968;28;37939;-79
2021/08/20 06:22:44;;;;;;;24.02;17.75;;;17.70;99.90;;;;;;4945141;28;36662;-79
2021/08/20 06:25:11;;;;;;;23.05;16.75;;;17.70;99.90;;;;;;4956562;28;37426;-79
2021/08/20 06:27:46;;;;;;;23.20;18.15;;;17.70;99.90;;;;;;4959461;28;38254;-80
2021/08/20 06:30:12;;;;;;;23.00;17.70;;;17.70;99.90;;;;;;4934795;28;38539;-79
2021/08/20 06:32:38;;;;;;;23.42;17.20;;;17.80;99.90;;;;;;4966738;28;38368;-79
2021/08/20 06:35:05;;;;;;;21.58;17.25;;;17.90;99.90;;;;;;4962868;28;38450;-78
2021/08/20 06:37:31;;;;;;;24.17;17.15;;;17.90;99.90;;;;;;4952435;28;46883;-80
2021/08/20 06:39:57;;;;;;;21.42;16.90;;;17.90;99.90;;;;;;4964317;28;39775;-79
2021/08/20 06:42:24;;;;;;;20.20;16.55;;;17.90;99.90;;;;;;4945112;28;38744;-79
2021/08/20 06:44:50;;;;;;;22.90;16.35;;;18.00;99.90;;;;;;4950209;28;37877;-78
2021/08/20 06:47:17;;;;;;;20.60;16.10;;;18.00;99.90;;;;;;4953163;28;38790;-79
2021/08/20 06:49:43;;;;;;;18.05;14.60;;;18.10;99.90;;;;;;4950514;28;38599;-78
2021/08/20 06:52:10;;;;;;;21.77;15.20;;;18.20;99.90;;;;;;4938395;28;36891;-79
2021/08/20 06:54:40;;;;;;;16.42;12.65;;;18.30;99.90;;;;;;4944557;28;36603;-79
2021/08/20 06:57:07;;;;;;;14.95;12.07;;;18.20;99.90;;;;;;4941593;28;38739;-80
2021/08/20 06:59:41;;;;;;;23.55;13.77;;;18.20;99.90;;;;;;4969086;28;37327;-79
2021/08/20 07:02:07;;;;;;;17.73;12.40;;;18.30;99.90;;;;;;4946477;28;38094;-77
2021/08/20 07:04:36;;;;;;;17.77;12.45;;;18.30;99.90;;;;;;4948584;28;37285;-79
2021/08/20 07:07:08;;;;;;;15.70;12.02;;;18.30;99.90;;;;;;4944530;28;37662;-81
2021/08/20 07:12:10;;;;;;;17.92;11.23;;;18.50;99.90;;;;;;5055844;23;20055;-80
2021/08/20 07:14:36;;;;;;;17.08;10.68;;;18.60;99.90;;;;;;4947516;28;36251;-80
2021/08/20 07:17:14;;;;;;;13.48;9.80;;;18.60;99.90;;;;;;4952536;28;38337;-80
2021/08/20 07:19:40;;;;;;;14.88;9.85;;;18.70;99.90;;;;;;4937147;28;38347;-79
2021/08/20 07:22:06;;;;;;;12.40;8.65;;;18.70;99.90;;;;;;4935249;28;36416;-80
2021/08/20 07:24:32;;;;;;;10.40;9.32;;;18.80;99.90;;;;;;4939619;28;37075;-80
2021/08/20 07:27:23;;;;;;;14.32;9.70;;;18.80;99.90;;;;;;4953283;28;37997;-81
2021/08/20 07:29:52;;;;;;;10.65;8.43;;;18.80;99.90;;;;;;4954842;28;48646;-80
2021/08/20 07:32:25;;;;;;;14.02;8.95;;;18.90;99.90;;;;;;4951718;28;38019;-80
2021/08/20 07:34:51;;;;;;;8.57;6.63;;;18.90;99.90;;;;;;4939151;28;37397;-77
2021/08/20 07:37:47;;;;;;;9.45;7.07;;;18.90;99.90;;;;;;4948333;28;39028;-80
2021/08/20 07:40:15;;;;;;;11.73;7.65;;;19.10;99.90;;;;;;4964384;28;38660;-80
2021/08/20 07:42:41;;;;;;;10.93;7.30;;;19.10;99.90;;;;;;4950335;28;37029;-80
2021/08/20 07:45:09;;;;;;;9.20;6.85;;;19.20;99.90;;;;;;4952804;28;37407;-78
2021/08/20 07:47:50;;;;;;;14.48;6.82;;;19.10;99.90;;;;;;4947274;28;38067;-79
2021/08/20 07:55:29;;;;;;;7.72;4.72;;;19.60;99.90;;;;;;5403683;23;20043;-80
2021/08/20 07:57:56;;;;;;;7.78;4.95;;;19.90;99.90;;;;;;4949761;28;38541;-80
2021/08/20 08:00:32;;;;;;;7.80;4.55;;;20.10;99.90;;;;;;4958799;28;39780;-81
2021/08/20 08:03:00;;;;;;;12.23;5.03;;;20.20;99.90;;;;;;4967664;28;36423;-80
2021/08/20 08:05:27;;;;;;;8.32;4.85;;;20.20;99.90;;;;;;4947883;28;37335;-80
2021/08/20 08:07:56;;;;;;;6.57;5.03;;;20.30;99.90;;;;;;4947802;28;38766;-80
2021/08/20 08:10:25;;;;;;;12.15;5.82;;;20.30;99.90;;;;;;4967191;28;37379;-81
2021/08/20 08:31:42;;;;;;;10.65;5.43;;;20.70;99.90;;;;;;4887477;23;20043;-80
2021/08/20 08:34:31;;;;;;;8.32;4.72;;;20.80;99.90;;;;;;4948997;28;37629;-81
2021/08/20 08:37:37;;;;;;;9.45;4.78;;;20.90;99.90;;;;;;4980208;28;38634;-80
2021/08/20 08:43:14;;;;;;;7.55;5.05;;;21.40;99.90;;;;;;5636318;23;20095;-80
2021/08/20 08:53:44;;;;;;;9.35;4.63;;;21.70;99.90;;;;;;5694789;23;20059;-79
2021/08/20 08:56:43;;;;;;;8.75;5.57;;;21.70;99.90;;;;;;4959156;28;37658;-80
2021/08/20 09:04:22;;;;;;;7.53;5.97;;;21.90;99.90;;;;;;5482022;23;20060;-80
2021/08/20 09:06:54;;;;;;;5.35;4.47;;;21.60;99.90;;;;;;4945109;28;36807;-79
2021/08/20 09:09:25;;;;;;;9.30;4.68;;;21.40;99.90;;;;;;4955865;28;39008;-79
2021/08/20 09:12:09;;;;;;;5.93;4.28;;;21.40;99.90;;;;;;4951286;28;38898;-80
2021/08/20 09:17:11;;;;;;;7.47;5.45;;;21.70;99.90;;;;;;4989561;23;20047;-76
2021/08/20 09:19:43;;;;;;;6.97;5.65;;;22.00;99.90;;;;;;4980425;28;36926;-78
2021/08/20 09:31:11;;;;;;;7.55;6.53;;;22.00;99.90;;;;;;4932548;28;38493;-78
2021/08/20 09:33:43;;;;;;;8.45;7.32;;;22.30;99.90;;;;;;4935209;28;40854;-78
2021/08/20 09:36:12;;;;;;;9.95;7.40;;;22.10;99.90;;;;;;4911967;29;38238;-78
2021/08/20 09:38:51;;;;;;;7.63;6.75;;;21.80;99.90;;;;;;4906329;29;37417;-77
2021/08/20 09:41:34;;;;;;;8.07;5.97;;;21.70;99.90;;;;;;4911753;29;36894;-78
2021/08/20 09:44:03;;;;;;;5.93;5.32;;;21.60;99.90;;;;;;4928823;29;38263;-78
2021/08/20 09:46:41;;;;;;;5.97;4.38;;;21.70;99.90;;;;;;4911718;29;48072;-78
2021/08/20 09:49:17;;;;;;;6.47;4.18;;;21.90;99.90;;;;;;4928044;28;37878;-79
2021/08/20 09:52:24;;;;;;;3.83;3.45;;;21.60;99.90;;;;;;4927072;28;38070;-79
2021/08/20 09:54:51;;;;;;;5.15;3.72;;;21.80;99.90;;;;;;4925248;29;47248;-78
2021/08/20 09:57:46;;;;;;;4.82;3.00;;;22.30;99.90;;;;;;4945350;28;37588;-78
2021/08/20 10:02:49;;;;;;;4.05;3.00;;;22.30;99.90;;;;;;5324058;23;20039;-77
2021/08/20 10:05:15;;;;;;;4.63;3.55;;;22.00;99.90;;;;;;4962265;28;38880;-78
2021/08/20 10:07:41;;;;;;;5.75;3.20;;;22.00;99.90;;;;;;4949144;28;38310;-78
2021/08/20 10:10:10;;;;;;;5.65;3.13;;;22.10;99.90;;;;;;4967694;28;38082;-78
2021/08/20 10:12:39;;;;;;;3.75;3.30;;;22.30;99.90;;;;;;5192415;23;36080;-77
2021/08/20 10:15:07;;;;;;;7.38;4.72;;;22.30;99.90;;;;;;4969927;28;36177;-78
2021/08/20 10:17:34;;;;;;;7.18;4.60;;;22.40;99.90;;;;;;4963674;28;37517;-78
2021/08/20 10:20:02;;;;;;;5.53;5.00;;;22.40;99.90;;;;;;4982110;28;37532;-78
2021/08/20 10:22:30;;;;;;;5.35;4.85;;;21.90;99.90;;;;;;4960480;28;36744;-79
2021/08/20 10:24:57;;;;;;;6.10;4.20;;;21.80;99.90;;;;;;4963063;28;38153;-79
2021/08/20 10:27:26;;;;;;;4.32;3.33;;;21.70;99.90;;;;;;5035624;23;38744;-80
2021/08/20 10:29:56;;;;;;;3.55;3.25;;;21.60;99.90;;;;;;5093168;23;37874;-79
2021/08/20 10:32:28;;;;;;;6.80;3.70;;;21.60;99.90;;;;;;4936809;29;37170;-77
2021/08/20 10:35:05;;;;;;;;;;;21.60;99.90;;;;;;4944782;28;38917;-79
2021/08/20 11:06:08;;;;;;;7.15;5.45;;;23.70;99.90;;;;;;5938541;23;20455;-80
2021/08/20 11:17:03;;;;;;;12.85;8.38;;;23.20;99.90;;;;;;5908134;23;19926;-78
2021/08/20 11:19:50;;;;;;;10.00;8.57;;;23.10;99.90;;;;;;4958133;28;35674;-78
2021/08/20 11:45:40;;;;;;;10.57;7.03;;;23.20;99.90;;;;;;5550055;23;20031;-78
2021/08/20 11:48:07;;;;;;;11.18;7.00;;;23.50;99.90;;;;;;5338211;23;38798;-79
2021/08/20 13:47:49;;;;;;;2.63;1.40;;;22.30;99.90;;;;;;5839727;23;20037;-80
2021/08/20 14:08:35;;;;;;;5.00;3.00;;;22.80;99.90;;;;;;5975078;23;20024;31
2021/08/20 14:11:06;;;;;;;7.97;4.65;;;23.20;99.90;;;;;;4871378;29;37889;-77
2021/08/20 14:13:33;;;;;;;4.75;4.20;;;23.10;99.90;;;;;;4867546;29;36790;-78
2021/08/20 14:16:35;;;;;;;5.65;4.82;;;23.00;99.90;;;;;;4877747;29;35601;-76
2021/08/20 14:19:01;;;;;;;;;;;22.90;99.90;;;;;;4871775;29;48120;-74
2021/08/20 14:21:27;;;;;;;7.20;4.40;;;22.80;99.90;;;;;;4869666;29;50660;-76
2021/08/20 14:23:56;;;;;;;4.82;4.38;;;22.80;99.90;;;;;;4871884;29;38761;-77
2021/08/20 14:26:29;;;;;;;5.50;4.32;;;22.70;99.90;;;;;;4904652;29;37391;-78
2021/08/20 14:28:58;;;;;;;4.82;4.32;;;22.50;99.90;;;;;;4901499;29;39119;-78
2021/08/20 14:31:24;;;;;;;3.95;3.47;;;22.40;99.90;;;;;;4937313;28;39476;-79
2021/08/20 14:33:51;;;;;;;2.72;2.45;;;22.40;99.90;;;;;;4919146;28;37747;-77
2021/08/20 14:36:17;;;;;;;3.72;3.08;;;22.40;99.90;;;;;;4900355;29;37417;-77
2021/08/20 14:38:55;;;;;;;6.55;3.92;;;22.50;99.90;;;;;;4909256;29;37630;-78
2021/08/20 14:41:22;;;;;;;4.03;2.80;;;22.70;99.90;;;;;;4886797;29;40433;-76
2021/08/20 14:49:20;;;;;;;2.90;2.00;;;22.90;99.90;;;;;;5119570;23;20071;-78
2021/08/20 14:51:46;;;;;;;1.50;1.30;;;22.90;99.90;;;;;;4948392;28;37543;-77
2021/08/20 14:54:12;;;;;;;3.15;1.88;;;22.80;99.90;;;;;;4948236;28;38034;-79
2021/08/20 14:56:38;;;;;;;1.88;1.20;;;22.90;99.90;;;;;;4940845;28;36347;-78
2021/08/20 14:59:04;;;;;;;1.67;1.55;;;23.00;99.90;;;;;;4942800;28;38111;-77
2021/08/20 15:01:30;;;;;;;2.95;2.00;;;23.00;99.90;;;;;;4953060;28;46838;-78
2021/08/20 15:03:57;;;;;;;3.25;1.92;;;23.10;99.90;;;;;;4945491;28;36959;-77
2021/08/20 15:09:46;;;;;;;3.13;1.40;;;22.60;99.90;;;;;;4962768;28;49609;-77
2021/08/20 15:12:13;;;;;;;4.40;1.77;;;22.60;99.90;;;;;;4915748;28;35995;-77
2021/08/20 15:14:39;;;;;;;3.00;1.65;;;22.60;99.90;;;;;;4923413;28;37976;-77
2021/08/20 15:17:06;;;;;;;2.63;1.10;;;22.90;99.90;;;;;;4941214;28;36579;-77
2021/08/20 15:19:36;;;;;;;3.45;1.50;;;23.10;99.90;;;;;;4958656;28;39112;-77
2021/08/20 15:22:03;;;;;;;2.28;1.70;;;23.10;99.90;;;;;;4952452;28;39062;-77
2021/08/20 15:24:30;;;;;;;3.50;2.30;;;22.80;99.90;;;;;;4929811;28;37484;-76
2021/08/20 15:26:56;;;;;;;3.53;2.42;;;22.70;99.90;;;;;;4934822;28;36233;-77
2021/08/20 15:29:22;;;;;;;3.15;2.20;;;22.70;99.90;;;;;;4932381;28;35563;-76
2021/08/20 15:31:58;;;;;;;2.92;2.35;;;22.70;99.90;;;;;;5074193;23;38020;-79
2021/08/20 15:34:26;;;;;;;2.10;1.20;;;22.50;99.90;;;;;;4953414;28;37155;-78
2021/08/20 15:37:02;;;;;;;1.95;1.40;;;22.60;99.90;;;;;;4949202;28;36208;-78
2021/08/20 15:39:30;;;;;;;2.47;2.20;;;22.70;99.90;;;;;;4949530;28;46960;-78
2021/08/20 15:42:00;;;;;;;3.13;1.83;;;22.80;99.90;;;;;;4951244;28;37107;-77
2021/08/20 15:44:28;;;;;;;2.90;1.90;;;22.90;99.90;;;;;;4938161;29;38669;-77
2021/08/20 15:46:56;;;;;;;3.70;1.85;;;22.90;99.90;;;;;;4943171;29;36577;-76
2021/08/20 15:49:25;;;;;;;1.98;1.88;;;23.00;99.90;;;;;;4924741;28;40856;-76
2021/08/20 15:51:53;;;;;;;2.38;2.17;;;23.10;99.90;;;;;;4923448;28;39158;-76
2021/08/20 15:54:20;;;;;;;2.60;2.35;;;23.00;99.90;;;;;;4907639;29;39341;-76
2021/08/20 15:59:22;;;;;;;5.10;2.67;;;23.10;99.90;;;;;;4949023;23;20021;-78
2021/08/20 16:01:49;;;;;;;2.78;2.35;;;23.00;99.90;;;;;;4936353;28;37228;-76
2021/08/20 16:04:25;;;;;;;3.75;2.97;;;22.60;99.90;;;;;;4951173;28;38797;-79
2021/08/20 16:06:51;;;;;;;3.17;2.40;;;22.70;99.90;;;;;;4943471;28;37833;-77
2021/08/20 16:14:56;;;;;;;3.47;1.95;;;22.70;99.90;;;;;;5413269;23;20036;-78
2021/08/20 16:17:23;;;;;;;1.42;1.30;;;22.50;99.90;;;;;;4955924;28;36717;-78
2021/08/20 16:19:49;;;;;;;1.83;1.67;;;22.50;99.90;;;;;;4967816;28;38756;-78
2021/08/20 16:22:17;;;;;;;3.92;2.00;;;22.30;99.90;;;;;;4962717;28;38705;-78
2021/08/20 16:24:43;;;;;;;4.05;2.60;;;22.20;99.90;;;;;;4963833;28;38587;-78
2021/08/20 16:27:09;;;;;;;3.97;2.35;;;22.30;99.90;;;;;;4946960;28;38218;-77
2021/08/20 16:29:35;;;;;;;2.67;2.42;;;22.30;99.90;;;;;;4944339;28;39802;-76
2021/08/20 16:32:02;;;;;;;4.53;2.80;;;22.40;99.90;;;;;;4952945;28;37458;-78
2021/08/20 16:34:29;;;;;;;3.33;3.03;;;22.40;99.90;;;;;;4945243;28;37098;-77
2021/08/20 16:36:57;;;;;;;3.63;2.60;;;22.30;99.90;;;;;;4942707;28;37524;-77
2021/08/20 16:39:23;;;;;;;1.90;1.80;;;22.10;99.90;;;;;;4954868;28;38760;-77
2021/08/20 16:41:49;;;;;;;1.95;1.85;;;22.10;99.90;;;;;;4942638;28;38132;-78
2021/08/20 16:44:16;;;;;;;3.47;2.50;;;22.20;99.90;;;;;;4958084;28;36860;-79
2021/08/20 16:46:51;;;;;;;2.13;1.95;;;22.10;99.90;;;;;;4948384;28;37258;-78
2021/08/20 16:49:34;;;;;;;3.47;2.50;;;22.20;99.90;;;;;;4970553;28;39532;-80
2021/08/20 16:52:02;;;;;;;2.13;1.88;;;22.00;99.90;;;;;;5272229;23;38104;-79
2021/08/20 16:54:28;;;;;;;3.20;2.50;;;21.70;99.90;;;;;;4926502;28;47088;-78
2021/08/20 17:02:09;;;;;;;3.30;2.70;;;21.70;99.90;;;;;;5096708;23;20044;-80
2021/08/20 17:04:35;;;;;;;4.80;2.63;;;21.60;99.90;;;;;;4933694;28;38316;-78
2021/08/20 17:07:05;;;;;;;6.13;2.60;;;21.70;99.90;;;;;;4959394;28;38701;-79
2021/08/20 17:09:32;;;;;;;3.63;2.13;;;21.60;99.90;;;;;;4946678;28;38778;-80
2021/08/20 17:11:58;;;;;;;4.60;3.20;;;21.60;99.90;;;;;;4933280;29;38060;-77
2021/08/20 17:14:25;;;;;;;4.13;3.08;;;21.60;99.90;;;;;;4934960;28;38422;-78
2021/08/20 17:16:51;;;;;;;5.05;3.33;;;21.50;99.90;;;;;;4941890;29;35915;-79
2021/08/20 17:19:27;;;;;;;5.25;3.80;;;21.60;99.90;;;;;;4941445;28;37779;-79
2021/08/20 17:32:18;;;;;;;7.07;5.03;;;21.20;99.90;;;;;;5352937;23;20044;-80